This is the latest recevied weather packets stored in our database for station/object OE3MHU-12. If no packets are shown the sender has not sent any weather packets the latest 10 day(s).
| Time | Temp. | Humidity | Pressure | Rain* | Wind** | Luminosity | Snow |
|---|---|---|---|---|---|---|---|
| 1777793145 | 17.78° C | 51% | 1017.5 hPa | 0 mm | - | - | - |
| 1777791345 | 16.11° C | 53% | 1017.5 hPa | 0 mm | - | - | - |
| 1777787746 | 10° C | 68% | 1017.6 hPa | 0 mm | - | - | - |
| 1777785946 | 4.44° C | 82% | 1017.5 hPa | 0 mm | - | - | - |
| 1777784146 | 2.78° C | 83% | 1017.6 hPa | 0 mm | - | - | - |
| 1777782346 | 1.67° C | 82% | 1017.6 hPa | 0 mm | - | - | - |
| 1777778746 | 2.22° C | 80% | 1017.3 hPa | 0 mm | - | - | - |
| 1777776946 | 2.22° C | 79% | 1017.3 hPa | 0 mm | - | - | - |
| 1777775146 | 2.78° C | 78% | 1017.6 hPa | 0 mm | - | - | - |
| 1777773346 | 3.33° C | 77% | 1017.8 hPa | 0 mm | - | - | - |
| 1777767947 | 5° C | 72% | 1018.1 hPa | 0 mm | - | - | - |
| 1777766147 | 5.56° C | 71% | 1018.3 hPa | 0 mm | - | - | - |
| 1777764347 | 6.67° C | 69% | 1018.5 hPa | 0 mm | - | - | - |
| 1777760747 | 8.33° C | 66% | 1018.9 hPa | 0 mm | - | - | - |
| 1777758947 | 9.44° C | 62% | 1019 hPa | 0 mm | - | - | - |
| 1777757147 | 10.56° C | 59% | 1019 hPa | 0 mm | - | - | - |
| 1777755347 | 11.11° C | 57% | 1019.1 hPa | 0 mm | - | - | - |
| 1777753547 | 11.67° C | 55% | 1019.4 hPa | 0 mm | - | - | - |
| 1777751747 | 12.78° C | 53% | 1019.5 hPa | 0 mm | - | - | - |
| 1777749947 | 13.33° C | 50% | 1019.5 hPa | 0 mm | - | - | - |
| 1777748147 | 14.44° C | 48% | 1019.4 hPa | 0 mm | - | - | - |
| 1777746348 | 17.22° C | 41% | 1019.2 hPa | 0 mm | - | - | - |
| 1777744548 | 20° C | 32% | 1019 hPa | 0 mm | - | - | - |
| 1777742748 | 21.11° C | 30% | 1019.1 hPa | 0 mm | - | - | - |
| 1777740948 | 22.78° C | 27% | 1019.2 hPa | 0 mm | - | - | - |
* Rain latest hour (hover to see other rain measurements)
** Current wind speed in m/s (hover to see current wind gust speed)